Muse, Oklahoma
Current Conditions -  °F | °C
As of 10:15 AM on Tuesday 21 Oct 2014 (Local Time) from KRKR Reporting Station
Broken Clouds Broken Clouds  
Wind Chill: 62°   Ceiling: 4300
Heat Index: 62°   Visibility: 10mi
Dew Point: 60°   Wind: 0mph
Humidity: 92%   Direction: NA
Pressure: 30.14"   Gusts: NA
Location:  34.67°N, 94.76°W
Report Text: KRKR 211515Z AUTO 00000KT 10SM SCT004 BKN043 BKN060 17/16 A3014 RMK AO2 T01680155
Loading
Personal Weather Stations






























Interactive Weather Map
Tropical Storm Tracking
New forecast layout! Learn more

10-Day Weather Forecast

Advertisements
Track Severe Weather on mobile